sensor_id;sensor_type;location;lat;lon;timestamp;pressure;altitude;pressure_sealevel;temperature;humidity
22930;BME280;11630;42.660;23.292;2022-07-29T00:02:08;69739.59;;;19.91;100.00
22930;BME280;11630;42.660;23.292;2022-07-29T00:04:39;69694.08;;;19.52;100.00
22930;BME280;11630;42.660;23.292;2022-07-29T00:07:11;69695.97;;;19.60;100.00
22930;BME280;11630;42.660;23.292;2022-07-29T00:09:42;69713.00;;;19.66;100.00
22930;BME280;11630;42.660;23.292;2022-07-29T00:12:13;69715.71;;;19.76;100.00
22930;BME280;11630;42.660;23.292;2022-07-29T00:14:44;69718.43;;;19.81;100.00
22930;BME280;11630;42.660;23.292;2022-07-29T00:17:15;69724.77;;;19.83;100.00
22930;BME280;11630;42.660;23.292;2022-07-29T00:19:46;69742.64;;;19.88;100.00
22930;BME280;11630;42.660;23.292;2022-07-29T00:22:16;69759.63;;;20.10;100.00
22930;BME280;11630;42.660;23.292;2022-07-29T00:24:48;69776.66;;;20.21;100.00
22930;BME280;11630;42.660;23.292;2022-07-29T00:27:18;69780.72;;;20.33;100.00
22930;BME280;11630;42.660;23.292;2022-07-29T00:29:50;69807.38;;;20.51;100.00
22930;BME280;11630;42.660;23.292;2022-07-29T00:32:24;69815.84;;;20.65;100.00
22930;BME280;11630;42.660;23.292;2022-07-29T00:34:55;69778.50;;;20.36;100.00
22930;BME280;11630;42.660;23.292;2022-07-29T00:37:42;69793.94;;;20.38;100.00
22930;BME280;11630;42.660;23.292;2022-07-29T00:40:12;69750.56;;;20.04;100.00
22930;BME280;11630;42.660;23.292;2022-07-29T00:42:47;69743.44;;;20.00;100.00
22930;BME280;11630;42.660;23.292;2022-07-29T00:45:18;69739.61;;;19.89;100.00
22930;BME280;11630;42.660;23.292;2022-07-29T00:47:49;69764.63;;;20.08;100.00
22930;BME280;11630;42.660;23.292;2022-07-29T00:50:20;69777.68;;;20.34;100.00
22930;BME280;11630;42.660;23.292;2022-07-29T00:52:51;69809.31;;;20.49;100.00
22930;BME280;11630;42.660;23.292;2022-07-29T00:55:22;69773.09;;;20.16;100.00
22930;BME280;11630;42.660;23.292;2022-07-29T00:57:54;69761.83;;;20.12;100.00
22930;BME280;11630;42.660;23.292;2022-07-29T01:00:28;69776.06;;;20.28;100.00
22930;BME280;11630;42.660;23.292;2022-07-29T01:03:00;69754.39;;;20.09;100.00
22930;BME280;11630;42.660;23.292;2022-07-29T01:05:32;69739.02;;;20.01;100.00
22930;BME280;11630;42.660;23.292;2022-07-29T01:08:06;69728.59;;;19.86;100.00
22930;BME280;11630;42.660;23.292;2022-07-29T01:10:37;69742.33;;;19.99;100.00
22930;BME280;11630;42.660;23.292;2022-07-29T01:13:09;69773.06;;;20.24;100.00
22930;BME280;11630;42.660;23.292;2022-07-29T01:15:47;69789.76;;;20.45;100.00
22930;BME280;11630;42.660;23.292;2022-07-29T01:18:40;69816.98;;;20.59;100.00
22930;BME280;11630;42.660;23.292;2022-07-29T01:24:21;69857.63;;;20.93;100.00
22930;BME280;11630;42.660;23.292;2022-07-29T01:27:02;69846.91;;;20.87;100.00
22930;BME280;11630;42.660;23.292;2022-07-29T01:29:38;69840.86;;;20.82;100.00
22930;BME280;11630;42.660;23.292;2022-07-29T01:32:07;69837.28;;;20.80;100.00
22930;BME280;11630;42.660;23.292;2022-07-29T01:35:02;69800.70;;;20.58;100.00
22930;BME280;11630;42.660;23.292;2022-07-29T01:37:29;69756.34;;;20.08;100.00
22930;BME280;11630;42.660;23.292;2022-07-29T01:40:03;69745.16;;;19.84;100.00
22930;BME280;11630;42.660;23.292;2022-07-29T01:42:44;69705.30;;;19.66;100.00
22930;BME280;11630;42.660;23.292;2022-07-29T01:45:20;69689.41;;;19.49;100.00
22930;BME280;11630;42.660;23.292;2022-07-29T01:48:00;69710.50;;;19.72;100.00
22930;BME280;11630;42.660;23.292;2022-07-29T01:50:36;69748.67;;;19.98;100.00
22930;BME280;11630;42.660;23.292;2022-07-29T01:52:58;69760.98;;;20.15;100.00
22930;BME280;11630;42.660;23.292;2022-07-29T01:55:34;69799.25;;;20.26;100.00
22930;BME280;11630;42.660;23.292;2022-07-29T01:58:07;69795.66;;;20.29;100.00
22930;BME280;11630;42.660;23.292;2022-07-29T02:00:38;69762.10;;;20.11;100.00
22930;BME280;11630;42.660;23.292;2022-07-29T02:03:12;69752.80;;;19.98;100.00
22930;BME280;11630;42.660;23.292;2022-07-29T02:05:46;69727.84;;;19.77;100.00
22930;BME280;11630;42.660;23.292;2022-07-29T02:08:17;69696.28;;;19.52;100.00
22930;BME280;11630;42.660;23.292;2022-07-29T02:10:49;69686.39;;;19.48;100.00
22930;BME280;11630;42.660;23.292;2022-07-29T02:13:21;69700.70;;;19.53;100.00
22930;BME280;11630;42.660;23.292;2022-07-29T02:15:54;69719.62;;;19.67;100.00
22930;BME280;11630;42.660;23.292;2022-07-29T02:18:28;69731.06;;;19.90;100.00
22930;BME280;11630;42.660;23.292;2022-07-29T02:21:00;69740.12;;;20.02;100.00
22930;BME280;11630;42.660;23.292;2022-07-29T02:23:32;69759.33;;;20.14;100.00
22930;BME280;11630;42.660;23.292;2022-07-29T02:26:03;69752.27;;;19.98;100.00
22930;BME280;11630;42.660;23.292;2022-07-29T02:28:35;69780.50;;;20.27;100.00
22930;BME280;11630;42.660;23.292;2022-07-29T02:31:07;69795.61;;;20.34;100.00
22930;BME280;11630;42.660;23.292;2022-07-29T02:33:39;69796.66;;;20.43;100.00
22930;BME280;11630;42.660;23.292;2022-07-29T02:36:11;69799.41;;;20.43;100.00
22930;BME280;11630;42.660;23.292;2022-07-29T02:38:43;69771.72;;;20.19;100.00
22930;BME280;11630;42.660;23.292;2022-07-29T02:41:29;69737.94;;;19.95;100.00
22930;BME280;11630;42.660;23.292;2022-07-29T02:43:55;69710.48;;;19.75;100.00
22930;BME280;11630;42.660;23.292;2022-07-29T02:46:33;69755.17;;;20.16;100.00
22930;BME280;11630;42.660;23.292;2022-07-29T02:51:49;69776.62;;;20.28;100.00
22930;BME280;11630;42.660;23.292;2022-07-29T02:54:44;69768.41;;;20.18;100.00
22930;BME280;11630;42.660;23.292;2022-07-29T02:57:00;69763.17;;;20.20;100.00
22930;BME280;11630;42.660;23.292;2022-07-29T02:59:31;69729.72;;;19.85;100.00
22930;BME280;11630;42.660;23.292;2022-07-29T03:02:03;69755.25;;;20.07;100.00
22930;BME280;11630;42.660;23.292;2022-07-29T03:04:35;69776.08;;;20.25;100.00
22930;BME280;11630;42.660;23.292;2022-07-29T03:07:07;69768.08;;;20.24;100.00
22930;BME280;11630;42.660;23.292;2022-07-29T03:09:38;69756.95;;;20.01;100.00
22930;BME280;11630;42.660;23.292;2022-07-29T03:12:09;69736.33;;;19.86;100.00
22930;BME280;11630;42.660;23.292;2022-07-29T03:14:40;69749.77;;;19.99;100.00
22930;BME280;11630;42.660;23.292;2022-07-29T03:17:12;69756.36;;;20.03;100.00
22930;BME280;11630;42.660;23.292;2022-07-29T03:19:43;69770.17;;;20.00;100.00
22930;BME280;11630;42.660;23.292;2022-07-29T03:22:15;69743.99;;;19.98;100.00
22930;BME280;11630;42.660;23.292;2022-07-29T03:24:46;69753.64;;;19.98;100.00
22930;BME280;11630;42.660;23.292;2022-07-29T03:27:18;69712.71;;;19.72;100.00
22930;BME280;11630;42.660;23.292;2022-07-29T03:29:49;69685.28;;;19.49;100.00
22930;BME280;11630;42.660;23.292;2022-07-29T03:32:20;69676.28;;;19.35;100.00
22930;BME280;11630;42.660;23.292;2022-07-29T03:34:51;69672.95;;;19.37;100.00
22930;BME280;11630;42.660;23.292;2022-07-29T03:37:22;69685.61;;;19.41;100.00
22930;BME280;11630;42.660;23.292;2022-07-29T03:39:54;69692.41;;;19.56;100.00
22930;BME280;11630;42.660;23.292;2022-07-29T03:42:30;69714.09;;;19.72;100.00
22930;BME280;11630;42.660;23.292;2022-07-29T03:45:01;69704.22;;;19.63;100.00
22930;BME280;11630;42.660;23.292;2022-07-29T03:47:34;69700.70;;;19.53;100.00
22930;BME280;11630;42.660;23.292;2022-07-29T03:50:08;69714.11;;;19.67;100.00
22930;BME280;11630;42.660;23.292;2022-07-29T03:52:40;69708.03;;;19.69;100.00
22930;BME280;11630;42.660;23.292;2022-07-29T03:55:11;69737.43;;;19.87;100.00
22930;BME280;11630;42.660;23.292;2022-07-29T03:57:43;69759.38;;;20.07;100.00
22930;BME280;11630;42.660;23.292;2022-07-29T04:00:15;69750.06;;;19.96;100.00
22930;BME280;11630;42.660;23.292;2022-07-29T04:02:46;69735.73;;;19.93;100.00
22930;BME280;11630;42.660;23.292;2022-07-29T04:05:18;69766.72;;;20.22;100.00
22930;BME280;11630;42.660;23.292;2022-07-29T04:07:49;69785.12;;;20.37;100.00
22930;BME280;11630;42.660;23.292;2022-07-29T04:10:21;69797.16;;;20.51;100.00
22930;BME280;11630;42.660;23.292;2022-07-29T04:12:52;69808.97;;;20.58;100.00
22930;BME280;11630;42.660;23.292;2022-07-29T04:15:23;69832.36;;;20.70;100.00
22930;BME280;11630;42.660;23.292;2022-07-29T04:17:53;69854.91;;;20.88;100.00
22930;BME280;11630;42.660;23.292;2022-07-29T04:20:24;69877.42;;;21.08;100.00
22930;BME280;11630;42.660;23.292;2022-07-29T04:22:54;69878.97;;;21.20;100.00
22930;BME280;11630;42.660;23.292;2022-07-29T04:25:24;69891.59;;;21.34;100.00
22930;BME280;11630;42.660;23.292;2022-07-29T04:27:56;69880.67;;;21.14;100.00
22930;BME280;11630;42.660;23.292;2022-07-29T04:30:31;69859.20;;;21.04;100.00
22930;BME280;11630;42.660;23.292;2022-07-29T04:33:04;69869.39;;;21.10;100.00
22930;BME280;11630;42.660;23.292;2022-07-29T04:35:36;69871.29;;;21.13;100.00
22930;BME280;11630;42.660;23.292;2022-07-29T04:38:08;69818.83;;;20.69;100.00
22930;BME280;11630;42.660;23.292;2022-07-29T04:40:38;69802.36;;;20.59;100.00
22930;BME280;11630;42.660;23.292;2022-07-29T04:43:09;69817.22;;;20.65;100.00
22930;BME280;11630;42.660;23.292;2022-07-29T04:45:40;69843.84;;;20.90;100.00
22930;BME280;11630;42.660;23.292;2022-07-29T04:48:11;69890.50;;;21.33;100.00
22930;BME280;11630;42.660;23.292;2022-07-29T04:50:41;69929.86;;;21.57;100.00
22930;BME280;11630;42.660;23.292;2022-07-29T04:53:11;69965.02;;;21.86;100.00
22930;BME280;11630;42.660;23.292;2022-07-29T04:55:43;69919.90;;;21.58;100.00
22930;BME280;11630;42.660;23.292;2022-07-29T04:58:14;69989.37;;;22.20;100.00
22930;BME280;11630;42.660;23.292;2022-07-29T05:00:44;69989.37;;;22.20;100.00
22930;BME280;11630;42.660;23.292;2022-07-29T05:03:15;69996.28;;;22.22;100.00
22930;BME280;11630;42.660;23.292;2022-07-29T05:05:45;69961.08;;;21.95;100.00
22930;BME280;11630;42.660;23.292;2022-07-29T05:08:16;69987.23;;;22.10;100.00
22930;BME280;11630;42.660;23.292;2022-07-29T05:10:47;70020.25;;;22.38;100.00
22930;BME280;11630;42.660;23.292;2022-07-29T05:13:18;70035.58;;;22.56;100.00
22930;BME280;11630;42.660;23.292;2022-07-29T05:15:49;70053.00;;;22.61;100.00
22930;BME280;11630;42.660;23.292;2022-07-29T05:18:20;70076.59;;;22.87;100.00
22930;BME280;11630;42.660;23.292;2022-07-29T05:20:50;70112.48;;;23.05;100.00
22930;BME280;11630;42.660;23.292;2022-07-29T05:23:21;70119.20;;;23.29;100.00
22930;BME280;11630;42.660;23.292;2022-07-29T05:25:51;70097.58;;;22.96;100.00
22930;BME280;11630;42.660;23.292;2022-07-29T05:28:22;70079.92;;;22.88;100.00
22930;BME280;11630;42.660;23.292;2022-07-29T05:30:53;70095.06;;;22.98;100.00
22930;BME280;11630;42.660;23.292;2022-07-29T05:33:24;70048.25;;;22.65;100.00
22930;BME280;11630;42.660;23.292;2022-07-29T05:35:55;70071.67;;;22.80;100.00
22930;BME280;11630;42.660;23.292;2022-07-29T05:38:26;70032.56;;;22.55;100.00
22930;BME280;11630;42.660;23.292;2022-07-29T05:40:58;70062.77;;;22.85;100.00
22930;BME280;11630;42.660;23.292;2022-07-29T05:43:32;70100.78;;;23.12;100.00
22930;BME280;11630;42.660;23.292;2022-07-29T05:46:03;70137.16;;;23.34;100.00
22930;BME280;11630;42.660;23.292;2022-07-29T05:48:34;70139.09;;;23.37;100.00
22930;BME280;11630;42.660;23.292;2022-07-29T05:51:05;70118.09;;;23.28;100.00
22930;BME280;11630;42.660;23.292;2022-07-29T05:53:35;70135.23;;;23.34;100.00
22930;BME280;11630;42.660;23.292;2022-07-29T05:56:06;70147.84;;;23.50;100.00
22930;BME280;11630;42.660;23.292;2022-07-29T05:58:35;70197.94;;;23.93;100.00
22930;BME280;11630;42.660;23.292;2022-07-29T06:01:05;70229.72;;;24.34;100.00
22930;BME280;11630;42.660;23.292;2022-07-29T06:03:35;70239.13;;;24.38;100.00
22930;BME280;11630;42.660;23.292;2022-07-29T06:06:06;70189.29;;;23.99;100.00
22930;BME280;11630;42.660;23.292;2022-07-29T06:08:37;70199.16;;;23.82;100.00
22930;BME280;11630;42.660;23.292;2022-07-29T06:11:08;70215.80;;;24.13;100.00
22930;BME280;11630;42.660;23.292;2022-07-29T06:13:40;70241.20;;;24.26;100.00
22930;BME280;11630;42.660;23.292;2022-07-29T06:16:10;70234.89;;;24.19;100.00
22930;BME280;11630;42.660;23.292;2022-07-29T06:18:41;70283.35;;;24.63;100.00
22930;BME280;11630;42.660;23.292;2022-07-29T06:21:11;70291.13;;;24.88;100.00
22930;BME280;11630;42.660;23.292;2022-07-29T06:23:42;70297.09;;;24.78;100.00
22930;BME280;11630;42.660;23.292;2022-07-29T06:26:17;70281.59;;;24.71;100.00
22930;BME280;11630;42.660;23.292;2022-07-29T06:28:51;70310.83;;;24.92;100.00
22930;BME280;11630;42.660;23.292;2022-07-29T06:31:22;70331.81;;;25.06;98.86
22930;BME280;11630;42.660;23.292;2022-07-29T06:33:53;70325.63;;;25.13;99.12
22930;BME280;11630;42.660;23.292;2022-07-29T06:36:24;70366.92;;;25.53;95.85
22930;BME280;11630;42.660;23.292;2022-07-29T06:38:54;70358.18;;;25.38;96.29
22930;BME280;11630;42.660;23.292;2022-07-29T06:41:25;70391.80;;;25.68;93.40
22930;BME280;11630;42.660;23.292;2022-07-29T06:43:56;70405.56;;;25.83;93.09
22930;BME280;11630;42.660;23.292;2022-07-29T06:46:27;70368.99;;;25.41;94.87
22930;BME280;11630;42.660;23.292;2022-07-29T06:48:57;70440.98;;;26.02;90.94
22930;BME280;11630;42.660;23.292;2022-07-29T06:51:28;70477.61;;;26.37;87.55
22930;BME280;11630;42.660;23.292;2022-07-29T06:53:59;70448.92;;;26.13;86.18
22930;BME280;11630;42.660;23.292;2022-07-29T06:56:31;70450.85;;;26.14;88.77
22930;BME280;11630;42.660;23.292;2022-07-29T06:59:01;70367.66;;;25.36;91.77
22930;BME280;11630;42.660;23.292;2022-07-29T07:01:32;70442.56;;;26.09;90.08
22930;BME280;11630;42.660;23.292;2022-07-29T07:04:03;70428.59;;;25.90;88.64
22930;BME280;11630;42.660;23.292;2022-07-29T07:06:34;70443.95;;;26.09;88.51
22930;BME280;11630;42.660;23.292;2022-07-29T07:09:05;70445.78;;;26.19;88.65
22930;BME280;11630;42.660;23.292;2022-07-29T07:11:36;70503.84;;;26.59;86.61
22930;BME280;11630;42.660;23.292;2022-07-29T07:14:07;70449.23;;;26.10;89.55
22930;BME280;11630;42.660;23.292;2022-07-29T07:16:38;70458.31;;;26.19;89.00
22930;BME280;11630;42.660;23.292;2022-07-29T07:19:10;70487.27;;;26.46;87.89
22930;BME280;11630;42.660;23.292;2022-07-29T07:21:45;70529.38;;;26.91;85.12
22930;BME280;11630;42.660;23.292;2022-07-29T07:24:16;70573.14;;;27.36;84.72
22930;BME280;11630;42.660;23.292;2022-07-29T07:26:47;70586.03;;;27.33;84.28
22930;BME280;11630;42.660;23.292;2022-07-29T07:29:18;70514.25;;;26.73;85.10
22930;BME280;11630;42.660;23.292;2022-07-29T07:31:49;70486.05;;;26.55;86.73
22930;BME280;11630;42.660;23.292;2022-07-29T07:34:20;70553.06;;;27.15;83.68
22930;BME280;11630;42.660;23.292;2022-07-29T07:36:51;70581.31;;;27.51;81.44
22930;BME280;11630;42.660;23.292;2022-07-29T07:39:22;70620.83;;;27.64;80.06
22930;BME280;11630;42.660;23.292;2022-07-29T07:41:52;70635.72;;;27.78;79.31
22930;BME280;11630;42.660;23.292;2022-07-29T07:44:23;70586.13;;;27.47;80.53
22930;BME280;11630;42.660;23.292;2022-07-29T07:46:54;70649.93;;;28.01;78.20
22930;BME280;11630;42.660;23.292;2022-07-29T07:49:25;70658.31;;;28.01;76.57
22930;BME280;11630;42.660;23.292;2022-07-29T07:51:55;70680.70;;;28.19;75.89
22930;BME280;11630;42.660;23.292;2022-07-29T07:54:27;70642.45;;;27.95;74.64
22930;BME280;11630;42.660;23.292;2022-07-29T07:56:58;70662.74;;;28.04;74.15
22930;BME280;11630;42.660;23.292;2022-07-29T07:59:28;70657.08;;;28.09;75.59
22930;BME280;11630;42.660;23.292;2022-07-29T08:01:59;70668.25;;;28.09;72.68
22930;BME280;11630;42.660;23.292;2022-07-29T08:04:33;70676.22;;;28.20;73.55
22930;BME280;11630;42.660;23.292;2022-07-29T08:07:04;70736.74;;;28.71;70.42
22930;BME280;11630;42.660;23.292;2022-07-29T08:09:35;70731.20;;;28.66;71.58
22930;BME280;11630;42.660;23.292;2022-07-29T08:12:06;70705.95;;;28.52;70.78
22930;BME280;11630;42.660;23.292;2022-07-29T08:14:37;70738.61;;;28.79;68.73
22930;BME280;11630;42.660;23.292;2022-07-29T08:17:08;70727.05;;;28.64;68.73
22930;BME280;11630;42.660;23.292;2022-07-29T08:19:39;70768.50;;;29.01;68.48
22930;BME280;11630;42.660;23.292;2022-07-29T08:22:10;70730.91;;;28.67;69.51
22930;BME280;11630;42.660;23.292;2022-07-29T08:24:41;70767.98;;;28.98;66.38
22930;BME280;11630;42.660;23.292;2022-07-29T08:27:12;70727.83;;;28.68;69.49
22930;BME280;11630;42.660;23.292;2022-07-29T08:29:43;70748.86;;;28.84;68.54
22930;BME280;11630;42.660;23.292;2022-07-29T08:32:13;70762.97;;;28.96;67.21
22930;BME280;11630;42.660;23.292;2022-07-29T08:34:44;70828.98;;;29.57;64.95
22930;BME280;11630;42.660;23.292;2022-07-29T08:37:15;70777.92;;;29.07;66.28
22930;BME280;11630;42.660;23.292;2022-07-29T08:39:46;70803.48;;;29.39;64.48
22930;BME280;11630;42.660;23.292;2022-07-29T08:42:18;70787.23;;;29.20;64.61
22930;BME280;11630;42.660;23.292;2022-07-29T08:44:49;70835.11;;;29.60;61.96
22930;BME280;11630;42.660;23.292;2022-07-29T08:47:21;70810.80;;;29.38;64.25
22930;BME280;11630;42.660;23.292;2022-07-29T08:49:52;70808.95;;;29.65;62.78
22930;BME280;11630;42.660;23.292;2022-07-29T08:52:25;70840.34;;;29.65;61.31
22930;BME280;11630;42.660;23.292;2022-07-29T08:54:55;70881.25;;;30.02;61.67
22930;BME280;11630;42.660;23.292;2022-07-29T08:57:27;70913.86;;;30.32;58.83
22930;BME280;11630;42.660;23.292;2022-07-29T09:00:00;70952.33;;;30.65;57.98
22930;BME280;11630;42.660;23.292;2022-07-29T09:02:34;70965.86;;;30.78;57.14
22930;BME280;11630;42.660;23.292;2022-07-29T09:05:04;70916.62;;;30.34;56.26
22930;BME280;11630;42.660;23.292;2022-07-29T09:07:35;70864.91;;;29.89;57.98
22930;BME280;11630;42.660;23.292;2022-07-29T09:10:08;70785.36;;;29.15;61.36
22930;BME280;11630;42.660;23.292;2022-07-29T09:12:38;70712.29;;;28.59;63.47
22930;BME280;11630;42.660;23.292;2022-07-29T09:15:09;70790.47;;;29.28;61.16
22930;BME280;11630;42.660;23.292;2022-07-29T09:17:49;70887.67;;;30.04;58.92
22930;BME280;11630;42.660;23.292;2022-07-29T09:20:21;70912.63;;;30.38;55.66
22930;BME280;11630;42.660;23.292;2022-07-29T09:22:54;70931.05;;;30.44;56.16
22930;BME280;11630;42.660;23.292;2022-07-29T09:25:35;70930.17;;;30.47;54.81
22930;BME280;11630;42.660;23.292;2022-07-29T09:28:14;70973.30;;;30.86;53.44
22930;BME280;11630;42.660;23.292;2022-07-29T09:30:55;70964.20;;;30.77;53.32
22930;BME280;11630;42.660;23.292;2022-07-29T09:33:32;71010.68;;;31.19;53.29
22930;BME280;11630;42.660;23.292;2022-07-29T09:36:05;71067.42;;;31.68;50.86
22930;BME280;11630;42.660;23.292;2022-07-29T09:38:37;71080.97;;;31.82;47.87
22930;BME280;11630;42.660;23.292;2022-07-29T09:41:10;70975.25;;;30.87;50.11
22930;BME280;11630;42.660;23.292;2022-07-29T09:43:40;71062.42;;;31.66;48.53
22930;BME280;11630;42.660;23.292;2022-07-29T09:46:14;71012.85;;;31.23;49.64
22930;BME280;11630;42.660;23.292;2022-07-29T09:48:45;71087.36;;;31.86;48.13
22930;BME280;11630;42.660;23.292;2022-07-29T09:51:20;71143.78;;;32.39;47.44
22930;BME280;11630;42.660;23.292;2022-07-29T09:53:51;71132.16;;;32.29;47.44
22930;BME280;11630;42.660;23.292;2022-07-29T09:56:37;71176.78;;;32.68;45.64
22930;BME280;11630;42.660;23.292;2022-07-29T09:59:11;71216.35;;;33.04;45.05
22930;BME280;11630;42.660;23.292;2022-07-29T10:01:42;71243.52;;;33.29;45.14
22930;BME280;11630;42.660;23.292;2022-07-29T10:04:12;71187.77;;;32.83;46.59
22930;BME280;11630;42.660;23.292;2022-07-29T10:07:01;71237.17;;;33.22;45.82
22930;BME280;11630;42.660;23.292;2022-07-29T10:09:36;71183.67;;;32.75;46.19
22930;BME280;11630;42.660;23.292;2022-07-29T10:12:08;71235.41;;;33.25;45.46
22930;BME280;11630;42.660;23.292;2022-07-29T10:14:39;71259.78;;;33.47;43.59
22930;BME280;11630;42.660;23.292;2022-07-29T10:17:11;71307.20;;;33.88;41.99
22930;BME280;11630;42.660;23.292;2022-07-29T10:19:42;71331.36;;;34.09;41.81
22930;BME280;11630;42.660;23.292;2022-07-29T10:22:13;71235.21;;;33.21;43.93
22930;BME280;11630;42.660;23.292;2022-07-29T10:24:45;71230.66;;;33.22;44.65
22930;BME280;11630;42.660;23.292;2022-07-29T10:27:15;71296.38;;;33.80;42.41
22930;BME280;11630;42.660;23.292;2022-07-29T10:29:46;71274.82;;;33.58;42.61
22930;BME280;11630;42.660;23.292;2022-07-29T10:37:52;71394.56;;;34.65;39.91
22930;BME280;11630;42.660;23.292;2022-07-29T10:43:23;71392.34;;;34.63;41.90
22930;BME280;11630;42.660;23.292;2022-07-29T10:45:57;71452.25;;;35.17;39.20
22930;BME280;11630;42.660;23.292;2022-07-29T10:48:28;71347.17;;;34.22;40.94
22930;BME280;11630;42.660;23.292;2022-07-29T10:51:04;71323.37;;;33.98;42.02
22930;BME280;11630;42.660;23.292;2022-07-29T10:53:51;71326.64;;;34.03;42.23
22930;BME280;11630;42.660;23.292;2022-07-29T10:56:31;71325.48;;;34.05;43.25
22930;BME280;11630;42.660;23.292;2022-07-29T11:01:54;71462.55;;;35.25;40.05
22930;BME280;11630;42.660;23.292;2022-07-29T11:07:18;71425.31;;;34.94;38.77
22930;BME280;11630;42.660;23.292;2022-07-29T11:10:27;71424.47;;;34.95;38.80
22930;BME280;11630;42.660;23.292;2022-07-29T11:15:13;71438.63;;;35.06;38.64
22930;BME280;11630;42.660;23.292;2022-07-29T11:18:03;71446.91;;;35.16;38.96
22930;BME280;11630;42.660;23.292;2022-07-29T11:20:37;71423.89;;;34.94;38.97
22930;BME280;11630;42.660;23.292;2022-07-29T11:23:30;71417.04;;;34.84;39.49
22930;BME280;11630;42.660;23.292;2022-07-29T11:29:04;71461.13;;;35.25;37.54
22930;BME280;11630;42.660;23.292;2022-07-29T11:31:36;71392.34;;;34.63;37.59
22930;BME280;11630;42.660;23.292;2022-07-29T11:34:28;71266.48;;;33.51;39.42
22930;BME280;11630;42.660;23.292;2022-07-29T11:37:16;71306.14;;;33.85;39.48
22930;BME280;11630;42.660;23.292;2022-07-29T11:42:43;71282.88;;;33.64;40.05
22930;BME280;11630;42.660;23.292;2022-07-29T11:45:21;71205.84;;;32.95;42.51
22930;BME280;11630;42.660;23.292;2022-07-29T11:47:56;71348.78;;;34.26;39.44
22930;BME280;11630;42.660;23.292;2022-07-29T11:52:59;71374.33;;;34.46;38.20
22930;BME280;11630;42.660;23.292;2022-07-29T11:55:29;71284.77;;;33.67;39.32
22930;BME280;11630;42.660;23.292;2022-07-29T12:00:49;71247.09;;;33.33;40.50
22930;BME280;11630;42.660;23.292;2022-07-29T12:03:22;71240.75;;;33.26;39.32
22930;BME280;11630;42.660;23.292;2022-07-29T12:05:46;71195.56;;;32.87;39.84
22930;BME280;11630;42.660;23.292;2022-07-29T12:08:19;71225.23;;;33.12;40.90
22930;BME280;11630;42.660;23.292;2022-07-29T12:10:53;71339.91;;;34.18;38.29
22930;BME280;11630;42.660;23.292;2022-07-29T12:13:24;71325.53;;;34.02;37.85
22930;BME280;11630;42.660;23.292;2022-07-29T12:15:56;71379.87;;;34.51;37.22
22930;BME280;11630;42.660;23.292;2022-07-29T12:18:27;71388.16;;;34.61;37.44
22930;BME280;11630;42.660;23.292;2022-07-29T12:20:59;71444.19;;;35.11;36.72
22930;BME280;11630;42.660;23.292;2022-07-29T12:23:31;71461.13;;;35.25;36.29
22930;BME280;11630;42.660;23.292;2022-07-29T12:26:19;71371.56;;;34.44;37.34
22930;BME280;11630;42.660;23.292;2022-07-29T12:28:56;71327.48;;;34.05;37.30
22930;BME280;11630;42.660;23.292;2022-07-29T12:31:24;71425.06;;;34.93;35.96
22930;BME280;11630;42.660;23.292;2022-07-29T12:33:55;71401.72;;;34.74;35.78
22930;BME280;11630;42.660;23.292;2022-07-29T12:36:25;71354.94;;;34.29;36.44
22930;BME280;11630;42.660;23.292;2022-07-29T12:38:56;71424.50;;;34.92;35.77
22930;BME280;11630;42.660;23.292;2022-07-29T12:41:29;71516.92;;;35.74;34.56
22930;BME280;11630;42.660;23.292;2022-07-29T12:44:00;71495.55;;;35.56;34.86
22930;BME280;11630;42.660;23.292;2022-07-29T12:46:32;71466.13;;;35.29;34.66
22930;BME280;11630;42.660;23.292;2022-07-29T12:49:01;71479.13;;;35.42;34.51
22930;BME280;11630;42.660;23.292;2022-07-29T12:51:38;71505.54;;;35.65;33.14
22930;BME280;11630;42.660;23.292;2022-07-29T12:54:11;71521.55;;;35.82;33.44
22930;BME280;11630;42.660;23.292;2022-07-29T12:56:43;71486.08;;;35.47;33.73
22930;BME280;11630;42.660;23.292;2022-07-29T12:59:18;71536.34;;;35.91;32.89
22930;BME280;11630;42.660;23.292;2022-07-29T13:01:49;71534.63;;;35.92;32.95
22930;BME280;11630;42.660;23.292;2022-07-29T13:04:27;71530.80;;;35.86;32.82
22930;BME280;11630;42.660;23.292;2022-07-29T13:07:01;71516.86;;;35.76;32.83
22930;BME280;11630;42.660;23.292;2022-07-29T13:09:43;71497.75;;;35.58;34.25
22930;BME280;11630;42.660;23.292;2022-07-29T13:12:14;71495.28;;;35.54;33.91
22930;BME280;11630;42.660;23.292;2022-07-29T13:14:46;71534.38;;;35.91;33.78
22930;BME280;11630;42.660;23.292;2022-07-29T13:17:17;71522.48;;;35.79;33.75
22930;BME280;11630;42.660;23.292;2022-07-29T13:19:49;71524.39;;;35.82;33.26
22930;BME280;11630;42.660;23.292;2022-07-29T13:22:23;71557.09;;;36.13;32.80
22930;BME280;11630;42.660;23.292;2022-07-29T13:24:58;71540.75;;;35.98;33.96
22930;BME280;11630;42.660;23.292;2022-07-29T13:27:34;71553.76;;;36.10;32.75
22930;BME280;11630;42.660;23.292;2022-07-29T13:30:06;71560.11;;;36.17;32.69
22930;BME280;11630;42.660;23.292;2022-07-29T13:32:36;71576.58;;;36.28;32.61
22930;BME280;11630;42.660;23.292;2022-07-29T13:35:09;71569.62;;;36.23;32.61
22930;BME280;11630;42.660;23.292;2022-07-29T13:37:39;71542.67;;;36.01;33.12
22930;BME280;11630;42.660;23.292;2022-07-29T13:40:11;71559.12;;;36.11;32.56
22930;BME280;11630;42.660;23.292;2022-07-29T13:42:42;71564.36;;;36.17;32.75
22930;BME280;11630;42.660;23.292;2022-07-29T13:45:13;71596.77;;;36.50;32.41
22930;BME280;11630;42.660;23.292;2022-07-29T13:47:43;71541.86;;;35.99;32.33